Yarker, Canada
Current Conditions -  °F | °C
As of 6:00 AM on Friday 28 Nov 2014 (Local Time) from CYGK Reporting Station
Broken Clouds Broken Clouds  
Wind Chill: 10°   Ceiling: 5800
Heat Index: 19°   Visibility: 15mi
Dew Point: 18°   Wind: 7mph
Humidity: 93%   Direction: 280°W
Pressure: 30.15"   Gusts: NA
Location:  44.37°N, 76.77°W
Report Text: CYGK 281100Z 28006KT 15SM BKN058 M07/M08 A3015 RMK SC6 SLP214
Loading
Personal Weather Stations






























Interactive Weather Map New forecast layout! Learn more

10-Day Weather Forecast

Advertisements
Track Severe Weather on mobile